AirNav   Bose ProFlight Series 2 Headset
 
 1008 users online  

9FD1 Sacred Heart Hospital Heliport
Pensacola, Florida, USA

GOING TO PENSACOLA?


FAA INFORMATION EFFECTIVE 02 JANUARY 2020

Location

FAA Identifier: 9FD1
Lat/Long: 30-28-28.1400N 087-12-43.8000W
30-28.469000N 087-12.730000W
30.4744833,-87.2121667
(estimated)
Elevation: 94 ft. / 29 m (estimated)
Variation: 01E (1985)
From city: 3 miles N of PENSACOLA, FL
Time zone: UTC -6 (UTC -5 during Daylight Saving Time)
Zip code: 32504

Heliport Operations

Heliport use: Private use. Permission required prior to landing
Activation date: 11/1988
Control tower: no
ARTCC: JACKSONVILLE CENTER
FSS: GAINESVILLE FLIGHT SERVICE STATION
Attendance: CONTINUOUS
Wind indicator: yes
Segmented circle: no
Lights: FOR PERIMETER LGTS CALL 850-416-7567.

Heliport Communications

WX ASOS at PNS (1.3 nm E): PHONE 850-436-4799
WX ASOS at NDZ (17 nm NE): PHONE 850-623-7210
WX ASOS at NSE (18 nm NE): PHONE 850-623-7241

Nearby radio navigation aids

VOR radial/distance  VOR name  Freq  Var
NUNr088/(6.4)SAUFLEY VOR108.8001E
CEWr230/34.7CRESTVIEW VORTAC115.9003E

 
NDB name  Hdg/Dist  Freq  Var  ID
PICKENS324/2.832602WPKZ .--. -.- --..

Heliport Services

Runway Information

Helipad H1

Dimensions: 55 x 55 ft. / 17 x 17 m
Surface: concrete
Runway edge lights: PERI
Latitude: 30-28.438500N
Longitude: 087-12.749500W
Elevation: 75.0 ft.
Traffic pattern: leftleft

Helipad H2

Dimensions: 50 x 50 ft. / 15 x 15 m
Surface: concrete, in excellent condition
Runway edge lights: PERI
Latitude: 30-28.499500N
Longitude: 087-12.710500W
Elevation: 94.0 ft.
Traffic pattern: leftleft

Heliport Ownership and Management from official FAA records

Ownership: Privately-owned
Owner: SACRED HEART HOSPITAL
5151 NORTH 9TH AVENUE
PENSACOLA, FL 32504
Phone 850-416-7567
Manager: MICHAEL MATRONI
5151 NORTH 9TH AVENUE
PENSACOLA, FL 32504
Phone (850) 416-2369

Additional Remarks

FOR CD CTC PENSACOLA APCH AT 850-266-6884 OR 850-266-6885.

Instrument Procedures

There are no published instrument procedures at 9FD1.

Some nearby airports with instrument procedures:

KPNS - Pensacola International Airport (1 nm E)
KNPA - Pensacola Naval Air Station/Forrest Sherman Field (9 nm SW)
2R4 - Peter Prince Field Airport (15 nm NE)
KNDZ - Whiting Field Naval Air Station South (17 nm NE)
KNSE - Whiting Field Naval Air Station North (18 nm NE)
 
Loc | Ops | Rwys | IFR | FBO | Links
Com | Nav | Svcs | Stats | Notes

Continental Services
AirBoss

 
Area around 9FD1 (Sacred Heart Hospital Heliport)
 
Road maps at: MapQuest Bing Google
 
Aerial photo
No photo
 
Sectional chart

 
Airport distance calculator
Flying to Sacred Heart Hospital Heliport? Find the distance to fly.

From to 9FD1

Sunrise and sunset
Times for 23-Jan-2020
 Local
(UTC-6)
 Zulu
(UTC)
Morning civil twilight06:2012:20
Sunrise06:4512:45
Sunset17:1623:16
Evening civil twilight17:4223:42

Current date and time
Zulu (UTC)  24-Jan-2020 00:50:49
Local (UTC-6)  23-Jan-2020 18:50:49
 
METAR
KPNS 
2nm E 
232353Z 08006KT 10SM OVC007 12/11 A2996 RMK AO2 RAB33E50 SLP150 P0000 60010 T01220111 10133 20117 56008
KNPA 
9nm SW 
232356Z 08003KT 8SM OVC006 13/13 A2995 RMK AO2 RAB08E55 CIG 005V010 SLP145 P0001 60008 T01330133 10139 20117 56008
KNDZ 
17nm NE 
232356Z 11007KT 10SM BKN014 OVC041 12/12 A2997 RMK AO2 RAE06B13E34 SLP138 6//// T01220117 10150 20122 56008 PNO $
KNSE 
18nm NE 
232356Z 09006KT 10SM SCT014 BKN025 OVC042 11/11 A2997 RMK RAE35 SLP138 6//// T01110106 10139 2011 56008
TAF
KPNS 
2nm E 
231739Z 2318/2418 09007KT P6SM SCT040 OVC100 FM231900 11007KT P6SM VCSH OVC030 FM232300 12005KT P6SM -SHRA OVC015 TEMPO 2400/2404 4SM SHRA OVC009 FM240800 24007KT P6SM OVC025 FM241600 32009KT P6SM FEW180
KNPA 
9nm SW 
2323/2423 07010G19KT 9999 VCSH SCT007 OVC015 QNH2990INS TEMPO 2323/2405 3200 RA BR OVC007 FM240500 24010KT 9999 VCSH BKN015 OVC040 QNH2986INS TEMPO 2405/2410 SCT020 OVC050 FM241200 30010KT 9999 SCT025 BKN040 BKN200 QNH2987INS FM241800 33010G18KT 9999 SCT045 SCT200 QNH2998INS AUTOMATED SENSOR METWATCH 2403 TIL 2412 T11/2413Z T17/2420Z FN20034
KNSE 
18nm NE 
2323/2423 11007KT 9000 -RA BR SCT018 BKN035 OVC060 651009 QNH2993INS BECMG 2400/2402 15008KT 8000 -RA BR SCT007 BKN018 OVC035 621009 QNH2990INS TEMPO 2401/2406 18010G15KT 3200 RA BR BKN007 OVC018 FM240600 16005KT 6000 BR VCSH BKN007 OVC018 600000 QNH2988INS TEMPO 2406/2412 VRB04KT 1600 BR OVC004 FM241430 32008G15KT 9999 BKN015 BKN035 QNH3000INS FM241800 33010G18KT 9999 SCT015 SCT050 BKN250 QNH2998INS FM242200 28007KT 9999 FEW050 SCT250 QNH2999INS AUTOMATED SENSOR METWATCH 2405 TIL 2412 T10/2406Z
NOTAMs
Click for the latest NOTAMs
NOTAMs are issued by the DoD/FAA and will open in a separate window not controlled by AirNav.

 

 
 

Would you like to see your business listed on this page?

 If your business provides an interesting product or service to pilots, flight crews, aircraft, or users of the Sacred Heart Hospital Heliport, you should consider listing it here.  To start the listing process, click on the button below
 
Add a business
 

Other Pages about Sacred Heart Hospital Heliport

Update a link
 
Copyright © AirNav, LLC. All rights reserved. Privacy Policy  Contact